Time;durP1;ratioP1;P1;durP2;ratioP2;P2;SDS_P1;SDS_P2;PMS_P1;PMS_P2;Temp;Humidity;BMP_temperature;BMP_pressure;BME280_temperature;BME280_humidity;BME280_pressure;Samples;Min_cycle;Max_cycle;Signal;HPM_P1;HPM_P2
2021/09/16 00:00:15;;;;;;;71.65;53.42;;;;;;;15.08;100.00;98778.16;2049096;29;20287;-76
2021/09/16 00:01:17;;;;;;;72.40;54.87;;;;;;;15.06;100.00;98775.81;2049956;29;20222;-76
2021/09/16 00:02:18;;;;;;;80.32;55.22;;;;;;;15.07;100.00;98779.28;2049398;29;20450;-75
2021/09/16 00:03:20;;;;;;;75.83;55.57;;;;;;;15.06;100.00;98775.81;2050248;29;20206;-75
2021/09/16 00:04:25;;;;;;;77.50;53.72;;;;;;;15.05;100.00;98773.47;2050590;28;20265;-76
2021/09/16 00:05:27;;;;;;;73.90;54.63;;;;;;;15.04;100.00;98778.06;2050563;28;20194;-75
2021/09/16 00:06:27;;;;;;;77.75;56.05;;;;;;;14.98;100.00;98769.41;2050672;29;20230;-76
2021/09/16 00:07:29;;;;;;;78.43;54.77;;;;;;;15.01;100.00;98776.03;2050519;29;20183;-75
2021/09/16 00:08:29;;;;;;;76.38;54.50;;;;;;;14.99;100.00;98775.56;2050762;29;20194;-75
2021/09/16 00:09:31;;;;;;;76.10;54.37;;;;;;;14.99;100.00;98772.88;2050660;28;20182;-76
2021/09/16 00:10:35;;;;;;;81.70;54.42;;;;;;;14.98;100.00;98766.72;2050684;29;20201;-75
2021/09/16 00:11:38;;;;;;;74.60;54.15;;;;;;;14.98;100.00;98774.00;2050618;28;20217;-76
2021/09/16 00:12:39;;;;;;;74.05;53.33;;;;;;;14.96;100.00;98770.88;2049864;29;20234;-75
2021/09/16 00:13:41;;;;;;;75.90;54.70;;;;;;;14.97;100.00;98772.44;2050081;29;20183;-75
2021/09/16 00:14:41;;;;;;;75.78;54.42;;;;;;;14.94;100.00;98773.09;2048935;28;20203;-75
2021/09/16 00:15:43;;;;;;;76.20;55.97;;;;;;;14.93;100.00;98766.13;2050072;29;20186;-76
2021/09/16 00:16:44;;;;;;;75.00;55.13;;;;;;;14.94;100.00;98773.09;2050470;28;20249;-75
2021/09/16 00:17:45;;;;;;;72.17;54.53;;;;;;;14.94;100.00;98773.09;2049750;29;20277;-75
2021/09/16 00:18:46;;;;;;;74.22;54.42;;;;;;;14.92;100.00;98776.09;2050014;29;20191;-75
2021/09/16 00:19:48;;;;;;;73.17;55.13;;;;;;;14.90;100.00;98767.59;2050494;29;20191;-75
2021/09/16 00:20:49;;;;;;;73.60;53.97;;;;;;;14.89;100.00;98773.31;2049825;29;20206;-75
2021/09/16 00:21:50;;;;;;;80.97;56.67;;;;;;;14.90;100.00;98777.56;2049915;29;20190;-76
2021/09/16 00:22:51;;;;;;;76.70;53.95;;;;;;;14.87;100.00;98765.59;2050461;29;20201;-75
2021/09/16 00:23:52;;;;;;;70.20;53.40;;;;;;;14.88;100.00;98774.44;2050464;29;20269;-75
2021/09/16 00:24:54;;;;;;;73.65;54.55;;;;;;;14.86;100.00;98771.28;2049742;29;20289;-76
2021/09/16 00:25:57;;;;;;;75.88;55.85;;;;;;;14.87;100.00;98772.88;2049825;29;20196;-75
2021/09/16 00:26:58;;;;;;;87.82;57.33;;;;;;;14.85;100.00;98769.69;2050406;29;20559;-76
2021/09/16 00:27:59;;;;;;;79.03;54.70;;;;;;;14.84;100.00;98768.91;2049816;29;20226;-75
2021/09/16 00:29:00;;;;;;;78.07;55.35;;;;;;;14.83;100.00;98771.94;2050039;29;20238;-75
2021/09/16 00:30:02;;;;;;;74.43;53.73;;;;;;;14.82;100.00;98770.38;2049315;29;20202;-76
2021/09/16 00:31:02;;;;;;;77.13;54.08;;;;;;;14.82;100.00;98771.16;2049806;29;20248;-75
2021/09/16 00:32:05;;;;;;;74.60;55.80;;;;;;;14.83;100.00;98769.25;2049625;29;20211;-75
2021/09/16 00:33:05;;;;;;;76.82;56.88;;;;;;;14.82;100.00;98771.16;2049787;29;20735;-75
2021/09/16 00:34:07;;;;;;;80.70;57.63;;;;;;;14.84;100.00;98773.50;2050386;29;20651;-75
2021/09/16 00:35:09;;;;;;;85.72;58.53;;;;;;;14.83;100.00;98767.34;2050403;29;20321;-75
2021/09/16 00:36:10;;;;;;;81.82;55.22;;;;;;;14.85;100.00;98770.47;2049663;29;20202;-75
2021/09/16 00:37:11;;;;;;;80.85;56.25;;;;;;;14.86;100.00;98768.59;2041186;29;20298;-75
2021/09/16 00:38:13;;;;;;;77.63;56.40;;;;;;;14.86;100.00;98765.91;2050000;29;20198;-75
2021/09/16 00:39:14;;;;;;;74.45;55.40;;;;;;;14.84;100.00;98768.91;2050300;28;20211;-75
2021/09/16 00:40:17;;;;;;;76.55;54.63;;;;;;;14.86;100.00;98768.59;2050248;29;20629;-75
2021/09/16 00:41:19;;;;;;;81.55;55.45;;;;;;;14.87;100.00;98762.91;2049538;29;20350;-76
2021/09/16 00:42:20;;;;;;;81.03;58.45;;;;;;;14.86;100.00;98763.22;2049728;29;20198;-75
2021/09/16 00:43:21;;;;;;;73.85;54.22;;;;;;;14.86;100.00;98760.56;2050417;29;20222;-75
2021/09/16 00:44:22;;;;;;;84.03;56.43;;;;;;;14.86;100.00;98760.56;2050485;28;20201;-75
2021/09/16 00:45:25;;;;;;;80.60;56.17;;;;;;;14.88;100.00;98764.47;2049745;29;20245;-75
2021/09/16 00:46:27;;;;;;;76.80;55.10;;;;;;;14.86;100.00;98755.97;2049569;29;20202;-75
2021/09/16 00:47:28;;;;;;;73.68;55.13;;;;;;;14.84;100.00;98758.16;2049236;29;20261;-75
2021/09/16 00:48:30;;;;;;;77.60;54.87;;;;;;;14.82;100.00;98760.41;2049815;29;20202;-75
2021/09/16 00:49:30;;;;;;;82.68;56.33;;;;;;;14.82;100.00;98760.41;2050240;28;20199;-76
2021/09/16 00:50:32;;;;;;;80.40;56.40;;;;;;;14.84;100.00;98760.06;2050516;28;20218;-75
2021/09/16 00:51:33;;;;;;;77.50;53.65;;;;;;;14.82;100.00;98759.63;2050169;29;20277;-75
2021/09/16 00:52:36;;;;;;;86.90;57.38;;;;;;;14.82;100.00;98759.63;2050359;28;20202;-75
2021/09/16 00:53:40;;;;;;;78.30;54.78;;;;;;;14.82;100.00;98763.09;2050179;29;20190;-75
2021/09/16 00:54:45;;;;;;;75.97;55.40;;;;;;;14.83;100.00;98764.66;2049549;29;20194;-75
2021/09/16 00:55:46;;;;;;;73.88;54.55;;;;;;;14.83;100.00;98764.66;2049605;29;20657;-75
2021/09/16 00:56:51;;;;;;;81.53;55.77;;;;;;;14.82;100.00;98759.63;2048954;29;20618;-75
2021/09/16 00:57:54;;;;;;;78.10;55.75;;;;;;;14.81;100.00;98761.53;2049561;28;20458;-76
2021/09/16 00:58:57;;;;;;;76.45;54.80;;;;;;;14.83;100.00;98766.56;2057012;28;20308;-75
2021/09/16 01:00:01;;;;;;;80.10;53.95;;;;;;;14.83;100.00;98766.56;2049364;29;20229;-76
2021/09/16 01:01:03;;;;;;;86.88;54.85;;;;;;;14.80;100.00;98765.34;2041960;29;20227;-75
2021/09/16 01:02:03;;;;;;;82.10;56.40;;;;;;;14.81;100.00;98764.22;2041696;29;20698;-75
2021/09/16 01:03:05;;;;;;;82.20;54.67;;;;;;;14.81;100.00;98768.81;2049541;29;20191;-75
2021/09/16 01:04:06;;;;;;;80.32;56.85;;;;;;;14.81;100.00;98768.81;2058310;28;20731;-75
2021/09/16 01:05:08;;;;;;;81.73;56.17;;;;;;;14.82;100.00;98770.38;2058184;28;20590;-76
2021/09/16 01:06:09;;;;;;;73.20;53.63;;;;;;;14.82;100.00;98773.06;2058080;28;20190;-75
2021/09/16 01:07:13;;;;;;;79.27;55.40;;;;;;;14.79;100.00;98769.13;2049421;29;20245;-75
2021/09/16 01:08:13;;;;;;;76.38;54.38;;;;;;;14.82;100.00;98771.16;2049912;28;20668;-76
2021/09/16 01:09:15;;;;;;;74.07;53.70;;;;;;;14.82;100.00;98773.84;2058049;28;20607;-76
2021/09/16 01:10:16;;;;;;;76.10;53.33;;;;;;;14.80;100.00;98772.59;2058066;28;20193;-75
2021/09/16 01:11:19;;;;;;;72.93;52.15;;;;;;;14.80;100.00;98773.38;2058170;28;20196;-75
2021/09/16 01:12:21;;;;;;;76.75;53.50;;;;;;;14.80;100.00;98772.59;2049442;29;20202;-75
2021/09/16 01:13:23;;;;;;;69.80;51.90;;;;;;;14.79;100.00;98768.34;2049642;28;20193;-76
2021/09/16 01:14:29;;;;;;;62.67;48.58;;;;;;;14.81;100.00;98774.19;2058033;28;20200;-76
2021/09/16 01:15:30;;;;;;;76.68;49.95;;;;;;;14.81;100.00;98771.50;2049273;29;20207;-75
2021/09/16 01:16:31;;;;;;;74.45;52.47;;;;;;;14.80;100.00;98768.03;2049369;29;20301;-75
2021/09/16 01:17:32;;;;;;;68.80;51.37;;;;;;;14.81;100.00;98768.81;2049479;29;20257;-75
2021/09/16 01:18:33;;;;;;;69.10;51.23;;;;;;;14.82;100.00;98765.78;2057309;28;20342;-75
2021/09/16 01:19:34;;;;;;;65.53;49.93;;;;;;;14.80;100.00;98768.03;2049440;29;20460;-75
2021/09/16 01:20:36;;;;;;;72.40;48.43;;;;;;;14.81;100.00;98758.84;2049470;29;20218;-76
2021/09/16 01:21:37;;;;;;;65.72;49.45;;;;;;;14.81;100.00;98758.06;2048973;29;20545;-75
2021/09/16 01:22:39;;;;;;;72.72;50.20;;;;;;;14.82;100.00;98759.63;2049380;29;20711;-75
2021/09/16 01:23:41;;;;;;;66.97;49.53;;;;;;;14.82;100.00;98765.00;2049504;28;20193;-76
2021/09/16 01:24:41;;;;;;;66.28;48.72;;;;;;;14.82;100.00;98765.78;2058062;28;20229;-75
2021/09/16 01:25:43;;;;;;;68.63;50.03;;;;;;;14.82;100.00;98760.41;2057805;28;20194;-75
2021/09/16 01:26:46;;;;;;;62.47;48.30;;;;;;;14.81;100.00;98760.75;2058185;28;20201;-75
2021/09/16 01:27:48;;;;;;;68.13;51.42;;;;;;;14.84;100.00;98757.38;2058066;28;20639;-75
2021/09/16 01:28:49;;;;;;;68.55;49.30;;;;;;;14.85;100.00;98762.41;2049285;29;20537;-76
2021/09/16 01:29:50;;;;;;;63.83;49.83;;;;;;;14.84;100.00;98755.47;2049414;29;20230;-75
2021/09/16 01:30:52;;;;;;;68.13;49.65;;;;;;;14.85;100.00;98758.94;2057974;28;20192;-76
2021/09/16 01:31:52;;;;;;;73.10;50.20;;;;;;;14.85;100.00;98765.09;2058168;28;20593;-75
2021/09/16 01:32:56;;;;;;;64.53;48.27;;;;;;;14.87;100.00;98756.75;2058059;28;20194;-76
2021/09/16 01:34:01;;;;;;;64.97;48.58;;;;;;;14.86;100.00;98757.88;2049338;29;20831;-76
2021/09/16 01:35:04;;;;;;;63.70;45.90;;;;;;;14.87;100.00;98759.44;2042008;29;20199;-75
2021/09/16 01:36:09;;;;;;;61.45;46.38;;;;;;;14.88;100.00;98758.31;2049510;28;20386;-75
2021/09/16 01:37:10;;;;;;;74.85;51.75;;;;;;;14.88;100.00;98761.78;2049262;29;20607;-75
2021/09/16 01:38:12;;;;;;;73.88;51.25;;;;;;;14.90;100.00;98756.06;2049433;28;20273;-75
2021/09/16 01:39:15;;;;;;;62.03;46.45;;;;;;;14.88;100.00;98758.31;2057877;28;20215;-76
2021/09/16 01:40:17;;;;;;;64.68;48.45;;;;;;;14.91;100.00;98763.00;2049259;29;20206;-75
2021/09/16 01:41:21;;;;;;;64.70;48.97;;;;;;;14.90;100.00;98750.69;2049678;28;20672;-75
2021/09/16 01:42:25;;;;;;;65.82;48.47;;;;;;;14.92;100.00;98756.50;2049358;29;20296;-76
2021/09/16 01:43:25;;;;;;;68.47;49.65;;;;;;;14.93;100.00;98755.41;2049630;28;20249;-76
2021/09/16 01:44:27;;;;;;;68.63;50.57;;;;;;;14.92;100.00;98754.63;2049218;29;20194;-76
2021/09/16 01:45:28;;;;;;;70.53;50.85;;;;;;;14.93;100.00;98752.72;2049453;28;20225;-75
2021/09/16 01:46:29;;;;;;;64.70;47.90;;;;;;;14.94;100.00;98751.59;2057884;28;20198;-76
2021/09/16 01:47:31;;;;;;;67.05;48.92;;;;;;;14.93;100.00;98752.72;2058061;28;20591;-76
2021/09/16 01:48:33;;;;;;;64.88;48.10;;;;;;;14.92;100.00;98745.78;2048884;29;20408;-76
2021/09/16 01:49:35;;;;;;;60.70;48.15;;;;;;;14.93;100.00;98755.41;2049213;29;20204;-76
2021/09/16 01:50:35;;;;;;;62.95;46.78;;;;;;;14.94;100.00;98748.91;2049475;28;20346;-76
2021/09/16 01:51:37;;;;;;;67.77;48.10;;;;;;;14.93;100.00;98747.34;2057980;28;20190;-76
2021/09/16 01:52:38;;;;;;;61.97;45.57;;;;;;;14.95;100.00;98750.50;2057939;28;20683;-76
2021/09/16 01:53:41;;;;;;;59.80;45.13;;;;;;;14.95;100.00;98750.50;2057803;28;20798;-75
2021/09/16 01:54:43;;;;;;;68.85;46.42;;;;;;;14.96;100.00;98749.38;2049135;29;20265;-75
2021/09/16 01:55:45;;;;;;;60.22;46.25;;;;;;;14.95;100.00;98745.91;2049576;28;20692;-75
2021/09/16 01:56:46;;;;;;;60.45;45.58;;;;;;;14.95;100.00;98747.81;2057883;28;20197;-76
2021/09/16 01:57:48;;;;;;;57.20;44.43;;;;;;;14.96;100.00;98741.31;2048902;29;20285;-75
2021/09/16 01:58:48;;;;;;;60.38;45.25;;;;;;;14.96;100.00;98749.38;2049174;28;20648;-76
2021/09/16 01:59:50;;;;;;;60.93;45.00;;;;;;;14.97;100.00;98745.56;2057894;28;20272;-75
2021/09/16 02:00:51;;;;;;;61.23;44.07;;;;;;;14.95;100.00;98748.59;2049086;29;20238;-75
2021/09/16 02:01:52;;;;;;;57.80;44.00;;;;;;;14.96;100.00;98738.63;2049306;29;20430;-75
2021/09/16 02:02:54;;;;;;;65.03;46.17;;;;;;;14.97;100.00;98745.56;2057835;28;20190;-76
2021/09/16 02:03:59;;;;;;;60.97;46.97;;;;;;;14.99;100.00;98748.69;2057976;28;20194;-75
2021/09/16 02:04:59;;;;;;;63.38;45.88;;;;;;;14.98;100.00;98742.53;2057764;28;20198;-75
2021/09/16 02:06:01;;;;;;;58.60;44.43;;;;;;;15.01;100.00;98751.06;2057769;28;20189;-75
2021/09/16 02:07:02;;;;;;;64.17;44.53;;;;;;;15.01;100.00;98745.69;2048820;29;20233;-75
2021/09/16 02:08:03;;;;;;;56.20;44.07;;;;;;;15.02;100.00;98739.19;2049339;29;20445;-75
2021/09/16 02:09:05;;;;;;;57.60;44.67;;;;;;;15.02;100.00;98745.34;2057887;28;20702;-75
2021/09/16 02:10:10;;;;;;;56.50;43.58;;;;;;;15.03;100.00;98744.25;2057742;28;20186;-75
2021/09/16 02:11:11;;;;;;;55.47;43.60;;;;;;;15.05;100.00;98741.22;2057736;28;20194;-76
2021/09/16 02:12:13;;;;;;;56.63;42.37;;;;;;;15.05;100.00;98736.63;2057971;28;20197;-75
2021/09/16 02:13:14;;;;;;;58.60;43.60;;;;;;;15.07;100.00;98742.47;2057746;28;20200;-75
2021/09/16 02:14:15;;;;;;;54.90;42.93;;;;;;;15.09;100.00;98742.13;2057977;28;20201;-75
2021/09/16 02:15:16;;;;;;;57.17;42.65;;;;;;;15.10;100.00;98741.00;2049112;29;20732;-75
2021/09/16 02:16:18;;;;;;;55.97;42.83;;;;;;;15.10;100.00;98741.78;2041173;29;20538;-75
2021/09/16 02:17:19;;;;;;;57.80;42.70;;;;;;;15.10;100.00;98736.41;2049390;28;20202;-76
2021/09/16 02:18:21;;;;;;;56.87;41.87;;;;;;;15.15;100.00;98736.19;2057911;28;20194;-75
2021/09/16 02:19:22;;;;;;;56.97;41.55;;;;;;;15.17;100.00;98738.53;2048759;29;20202;-75
2021/09/16 02:20:24;;;;;;;56.97;41.13;;;;;;;15.16;100.00;98724.31;2049126;29;20204;-76
2021/09/16 02:21:24;;;;;;;59.72;43.85;;;;;;;15.19;100.00;98734.41;2049222;28;20712;-75
2021/09/16 02:22:27;;;;;;;60.70;42.63;;;;;;;15.20;100.00;98730.63;2049062;29;20589;-75
2021/09/16 02:23:28;;;;;;;52.15;42.13;;;;;;;15.22;100.00;98741.81;2048615;29;20206;-75
2021/09/16 02:24:31;;;;;;;54.83;43.13;;;;;;;15.23;100.00;98734.53;2049245;29;20294;-75
2021/09/16 02:25:31;;;;;;;59.72;44.08;;;;;;;15.23;100.00;98735.31;2049095;29;20240;-76
2021/09/16 02:26:33;;;;;;;56.23;43.53;;;;;;;15.24;100.00;98734.19;2049165;29;20198;-76
2021/09/16 02:27:34;;;;;;;56.25;43.92;;;;;;;15.25;100.00;98732.28;2057689;28;20193;-76
2021/09/16 02:28:35;;;;;;;57.90;43.17;;;;;;;15.23;100.00;98735.31;2049078;29;20202;-76
2021/09/16 02:29:36;;;;;;;61.97;43.75;;;;;;;15.24;100.00;98731.50;2049097;29;20679;-75
2021/09/16 02:30:39;;;;;;;60.43;42.30;;;;;;;15.24;100.00;98733.41;2057691;28;20190;-75
2021/09/16 02:31:40;;;;;;;57.38;43.38;;;;;;;15.24;100.00;98733.41;2057881;28;20590;-76
2021/09/16 02:32:41;;;;;;;61.37;42.77;;;;;;;15.22;100.00;98725.69;2049055;29;20265;-76
2021/09/16 02:33:42;;;;;;;57.85;41.50;;;;;;;15.24;100.00;98728.03;2049257;28;20193;-76
2021/09/16 02:34:44;;;;;;;58.87;43.57;;;;;;;15.23;100.00;98732.63;2049071;29;20241;-75
2021/09/16 02:35:51;;;;;;;60.55;42.55;;;;;;;15.22;100.00;98724.91;2049088;29;20238;-75
2021/09/16 02:36:59;;;;;;;56.45;44.10;;;;;;;15.24;100.00;98726.13;2042021;29;20642;-76
2021/09/16 02:38:00;;;;;;;60.58;43.15;;;;;;;15.23;100.00;98724.56;2050614;28;20282;-75
2021/09/16 02:39:02;;;;;;;54.63;43.03;;;;;;;15.24;100.00;98730.72;2059204;28;20221;-76
2021/09/16 02:40:05;;;;;;;55.97;43.15;;;;;;;15.22;100.00;98722.22;2059401;28;20186;-76
2021/09/16 02:41:07;;;;;;;55.17;44.03;;;;;;;15.23;100.00;98724.56;2050467;29;20309;-76
2021/09/16 02:42:08;;;;;;;56.22;42.30;;;;;;;15.26;100.00;98721.19;2042576;29;20291;-76
2021/09/16 02:43:09;;;;;;;55.27;41.97;;;;;;;15.24;100.00;98723.44;2050578;29;20691;-75
2021/09/16 02:44:11;;;;;;;54.70;42.73;;;;;;;15.24;100.00;98723.44;2059375;28;20667;-76
2021/09/16 02:45:13;;;;;;;58.40;42.20;;;;;;;15.23;100.00;98721.88;2050489;29;20458;-76
2021/09/16 02:46:14;;;;;;;61.25;43.92;;;;;;;15.23;100.00;98716.50;2050505;29;20289;-75
2021/09/16 02:47:16;;;;;;;55.30;42.73;;;;;;;15.22;100.00;98720.31;2050599;29;20206;-75
2021/09/16 02:48:16;;;;;;;53.60;42.22;;;;;;;15.21;100.00;98715.28;2058205;28;20304;-75
2021/09/16 02:49:18;;;;;;;55.93;42.80;;;;;;;15.18;100.00;98714.03;2050220;29;20657;-75
2021/09/16 02:50:20;;;;;;;54.35;42.22;;;;;;;15.16;100.00;98713.59;2050483;28;20545;-75
2021/09/16 02:51:23;;;;;;;54.80;43.28;;;;;;;15.15;100.00;98712.00;2058570;28;20608;-75
2021/09/16 02:52:24;;;;;;;58.75;43.20;;;;;;;15.15;100.00;98711.22;2059130;28;20663;-75
2021/09/16 02:53:25;;;;;;;51.53;40.53;;;;;;;15.13;100.00;98716.94;2059104;28;20601;-75
2021/09/16 02:54:26;;;;;;;50.17;39.72;;;;;;;15.13;100.00;98716.16;2059055;28;20284;-76
2021/09/16 02:55:29;;;;;;;51.27;41.10;;;;;;;15.11;100.00;98713.00;2059136;28;20190;-75
2021/09/16 02:56:29;;;;;;;52.85;42.25;;;;;;;15.11;100.00;98716.47;2059146;28;20290;-75
2021/09/16 02:57:32;;;;;;;54.00;42.30;;;;;;;15.11;100.00;98721.84;2059200;28;20648;-75
2021/09/16 02:58:34;;;;;;;55.75;42.08;;;;;;;15.10;100.00;98719.50;2058863;28;20233;-75
2021/09/16 02:59:35;;;;;;;59.63;42.47;;;;;;;15.10;100.00;98722.97;2059072;28;20664;-75
2021/09/16 03:00:36;;;;;;;51.97;42.35;;;;;;;15.11;100.00;98716.47;2058968;28;20443;-75
2021/09/16 03:01:37;;;;;;;55.40;43.03;;;;;;;15.10;100.00;98717.59;2059074;28;20210;-75
2021/09/16 03:02:38;;;;;;;50.67;42.25;;;;;;;15.11;100.00;98713.00;2050393;29;20297;-75
2021/09/16 03:03:40;;;;;;;53.37;41.73;;;;;;;15.11;100.00;98708.41;2050495;29;20187;-76
2021/09/16 03:04:41;;;;;;;54.67;42.72;;;;;;;15.12;100.00;98715.38;2059088;28;20284;-75
2021/09/16 03:05:46;;;;;;;48.65;40.83;;;;;;;15.12;100.00;98718.06;2059130;28;20229;-75
2021/09/16 03:06:48;;;;;;;59.15;42.65;;;;;;;15.12;100.00;98715.38;2050680;28;20297;-75
2021/09/16 03:07:49;;;;;;;55.87;43.33;;;;;;;15.13;100.00;98711.56;2050620;28;20190;-76
2021/09/16 03:08:51;;;;;;;55.10;44.10;;;;;;;15.14;100.00;98717.72;2050315;29;20956;-75
2021/09/16 03:09:51;;;;;;;53.70;40.28;;;;;;;15.16;100.00;98718.16;2042420;29;20203;-75
2021/09/16 03:10:54;;;;;;;57.00;42.83;;;;;;;15.13;100.00;98714.25;2050440;29;20693;-76
2021/09/16 03:11:56;;;;;;;52.28;41.90;;;;;;;15.13;100.00;98710.78;2050511;28;20337;-75
2021/09/16 03:13:01;;;;;;;57.22;43.28;;;;;;;15.15;100.00;98719.28;2059167;28;20185;-75
2021/09/16 03:14:02;;;;;;;56.58;42.65;;;;;;;15.16;100.00;98713.59;2059163;28;20200;-75
2021/09/16 03:15:04;;;;;;;54.03;42.47;;;;;;;15.17;100.00;98720.53;2058974;28;20197;-75
2021/09/16 03:16:06;;;;;;;54.90;42.85;;;;;;;15.18;100.00;98716.72;2058935;28;20194;-75
2021/09/16 03:17:06;;;;;;;56.05;42.30;;;;;;;15.17;100.00;98711.69;2059152;28;20276;-75
2021/09/16 03:18:10;;;;;;;51.23;42.40;;;;;;;15.17;100.00;98717.84;2058984;28;20194;-75
2021/09/16 03:19:11;;;;;;;51.88;42.40;;;;;;;15.19;100.00;98712.91;2050222;29;20250;-75
2021/09/16 03:20:13;;;;;;;52.03;41.30;;;;;;;15.18;100.00;98713.25;2050618;28;20194;-75
2021/09/16 03:21:14;;;;;;;53.85;43.85;;;;;;;15.16;100.00;98718.94;2050169;29;20325;-75
2021/09/16 03:22:15;;;;;;;53.43;40.97;;;;;;;15.17;100.00;98717.06;2049971;29;20210;-76
2021/09/16 03:23:16;;;;;;;55.22;40.58;;;;;;;15.15;100.00;98713.91;2050201;29;20221;-76
2021/09/16 03:24:17;;;;;;;51.97;40.93;;;;;;;15.14;100.00;98706.97;2050294;29;20206;-76
2021/09/16 03:25:18;;;;;;;51.47;41.30;;;;;;;15.15;100.00;98708.53;2050210;29;20245;-75
2021/09/16 03:26:24;;;;;;;53.45;41.22;;;;;;;15.11;100.00;98700.34;2050679;28;20191;-75
2021/09/16 03:27:25;;;;;;;49.40;40.35;;;;;;;15.12;100.00;98710.00;2059073;28;20198;-76
2021/09/16 03:28:26;;;;;;;50.70;41.97;;;;;;;15.12;100.00;98706.53;2058856;28;20280;-76
2021/09/16 03:29:27;;;;;;;48.10;39.90;;;;;;;15.11;100.00;98718.38;2058783;28;20285;-76
2021/09/16 03:30:29;;;;;;;52.67;40.43;;;;;;;15.09;100.00;98713.34;2058787;28;20194;-75
2021/09/16 03:31:29;;;;;;;48.33;38.95;;;;;;;15.09;100.00;98710.66;2059011;28;20597;-76
2021/09/16 03:32:33;;;;;;;58.10;43.70;;;;;;;15.07;100.00;98710.22;2049695;29;20273;-75
2021/09/16 03:33:35;;;;;;;55.33;42.22;;;;;;;15.08;100.00;98711.78;2050170;29;20206;-76
2021/09/16 03:34:37;;;;;;;53.55;43.42;;;;;;;15.10;100.00;98711.44;2050780;28;20186;-75
2021/09/16 03:35:38;;;;;;;55.78;43.45;;;;;;;15.11;100.00;98713.78;2058784;28;20547;-75
2021/09/16 03:36:40;;;;;;;54.13;41.60;;;;;;;15.13;100.00;98705.41;2058866;28;20190;-75
2021/09/16 03:37:40;;;;;;;54.75;41.83;;;;;;;15.13;100.00;98706.19;2050106;29;20210;-76
2021/09/16 03:38:42;;;;;;;59.93;42.60;;;;;;;15.17;100.00;98714.38;2041787;29;20205;-75
2021/09/16 03:39:43;;;;;;;56.42;42.47;;;;;;;15.21;100.00;98713.38;2050335;28;20701;-76
2021/09/16 03:40:45;;;;;;;54.03;43.30;;;;;;;15.22;100.00;98709.56;2058763;28;20532;-75
2021/09/16 03:41:47;;;;;;;57.33;43.42;;;;;;;15.22;100.00;98720.31;2058662;28;20223;-75
2021/09/16 03:42:50;;;;;;;55.50;42.70;;;;;;;15.23;100.00;98707.66;2049719;29;20198;-75
2021/09/16 03:43:50;;;;;;;57.75;43.38;;;;;;;15.26;100.00;98707.75;2050075;29;20202;-75
2021/09/16 03:44:52;;;;;;;54.57;42.67;;;;;;;15.27;100.00;98713.91;2050397;29;20265;-75
2021/09/16 03:45:53;;;;;;;59.28;42.15;;;;;;;15.30;100.00;98712.50;2058833;28;20194;-75
2021/09/16 03:46:56;;;;;;;57.93;42.37;;;;;;;15.28;100.00;98718.16;2050052;29;20222;-75
2021/09/16 03:47:57;;;;;;;61.72;44.28;;;;;;;15.30;100.00;98720.56;2050467;28;20692;-75
2021/09/16 03:48:59;;;;;;;55.23;43.93;;;;;;;15.33;100.00;98719.88;2058641;28;20201;-75
2021/09/16 03:49:59;;;;;;;56.75;43.63;;;;;;;15.32;100.00;98715.63;2058856;28;20200;-75
2021/09/16 03:51:01;;;;;;;60.17;44.30;;;;;;;15.31;100.00;98719.44;2058715;28;20640;-75
2021/09/16 03:52:02;;;;;;;60.40;43.00;;;;;;;15.33;100.00;98719.88;2058647;28;20606;-75
2021/09/16 03:53:06;;;;;;;60.15;42.40;;;;;;;15.33;100.00;98714.50;2058736;28;20182;-75
2021/09/16 03:54:07;;;;;;;58.05;43.35;;;;;;;15.35;100.00;98707.66;2058631;28;20285;-75
2021/09/16 03:55:10;;;;;;;59.40;44.23;;;;;;;15.36;100.00;98719.19;2058625;28;20205;-75
2021/09/16 03:56:10;;;;;;;56.05;41.97;;;;;;;15.36;100.00;98714.59;2049976;29;20226;-75
2021/09/16 03:57:13;;;;;;;59.80;42.87;;;;;;;15.35;100.00;98712.25;2050141;29;20202;-75
2021/09/16 03:58:14;;;;;;;53.22;42.15;;;;;;;15.34;100.00;98710.69;2049793;28;20250;-76
2021/09/16 03:59:15;;;;;;;53.73;43.37;;;;;;;15.34;100.00;98716.06;2050204;29;20175;-75
2021/09/16 04:00:16;;;;;;;56.50;43.25;;;;;;;15.35;100.00;98712.25;2050065;29;20202;-75
2021/09/16 04:01:19;;;;;;;55.83;42.73;;;;;;;15.35;100.00;98712.25;2049988;28;20187;-75
2021/09/16 04:02:19;;;;;;;57.60;43.58;;;;;;;15.35;100.00;98709.56;2058667;28;20495;-75
2021/09/16 04:03:21;;;;;;;56.37;43.07;;;;;;;15.35;100.00;98718.41;2058628;28;20241;-75
2021/09/16 04:04:22;;;;;;;60.92;43.20;;;;;;;15.34;100.00;98714.16;2049890;29;20286;-75
2021/09/16 04:05:23;;;;;;;53.97;42.50;;;;;;;15.32;100.00;98705.66;2050195;29;20190;-75
2021/09/16 04:06:24;;;;;;;49.75;41.40;;;;;;;15.34;100.00;98710.69;2049594;29;20309;-75
2021/09/16 04:07:26;;;;;;;53.33;39.93;;;;;;;15.34;100.00;98710.69;2050052;29;20242;-75
2021/09/16 04:08:27;;;;;;;48.58;39.55;;;;;;;15.33;100.00;98709.91;2049830;29;20306;-75
2021/09/16 04:09:28;;;;;;;54.90;41.05;;;;;;;15.30;100.00;98694.44;2050004;28;20202;-75
2021/09/16 04:10:29;;;;;;;51.75;41.03;;;;;;;15.31;100.00;98703.31;2058489;28;20190;-75
2021/09/16 04:11:31;;;;;;;48.87;40.40;;;;;;;15.31;100.00;98701.41;2058501;28;20192;-75
2021/09/16 04:12:33;;;;;;;55.88;45.22;;;;;;;15.31;100.00;98708.69;2049873;29;20207;-75
2021/09/16 04:13:34;;;;;;;52.70;41.92;;;;;;;15.32;100.00;98707.56;2041664;29;20206;-75
2021/09/16 04:14:35;;;;;;;49.13;41.10;;;;;;;15.29;100.00;98706.31;2050155;28;20230;-75
2021/09/16 04:15:40;;;;;;;57.63;42.60;;;;;;;15.29;100.00;98700.94;2058475;28;20204;-75
2021/09/16 04:16:40;;;;;;;55.10;42.40;;;;;;;15.30;100.00;98704.41;2058484;28;20660;-75
2021/09/16 04:17:42;;;;;;;50.63;41.90;;;;;;;15.26;100.00;98699.69;2058476;28;20562;-75
2021/09/16 04:18:42;;;;;;;50.45;41.92;;;;;;;15.28;100.00;98708.19;2058426;28;20193;-75
2021/09/16 04:19:44;;;;;;;51.40;41.77;;;;;;;15.28;100.00;98707.41;2049776;29;20202;-75
2021/09/16 04:20:45;;;;;;;54.50;41.75;;;;;;;15.27;100.00;98703.94;2049873;28;20274;-75
2021/09/16 04:21:48;;;;;;;56.63;44.17;;;;;;;15.27;100.00;98711.22;2049700;29;20214;-75
2021/09/16 04:22:49;;;;;;;58.10;44.88;;;;;;;15.27;100.00;98714.69;2049681;29;20226;-75
2021/09/16 04:23:50;;;;;;;57.13;43.97;;;;;;;15.28;100.00;98707.41;2049903;29;20197;-75
2021/09/16 04:24:51;;;;;;;61.33;44.87;;;;;;;15.28;100.00;98708.19;2058425;28;20200;-75
2021/09/16 04:25:53;;;;;;;58.70;44.53;;;;;;;15.32;100.00;98704.88;2049447;29;21024;-75
2021/09/16 04:26:54;;;;;;;62.42;46.70;;;;;;;15.34;100.00;98708.78;2049398;29;20300;-75
2021/09/16 04:27:58;;;;;;;57.67;45.43;;;;;;;15.33;100.00;98714.50;2049964;29;20213;-75
2021/09/16 04:29:03;;;;;;;62.38;46.88;;;;;;;15.34;100.00;98711.47;2048876;29;20571;-76
2021/09/16 04:30:05;;;;;;;51.53;41.97;;;;;;;15.34;100.00;98713.38;2042602;29;20650;-76
2021/09/16 04:31:07;;;;;;;49.30;41.97;;;;;;;15.34;100.00;98714.16;2041601;29;20258;-75
2021/09/16 04:32:08;;;;;;;56.00;42.57;;;;;;;15.33;100.00;98709.13;2050132;28;20437;-75
2021/09/16 04:33:10;;;;;;;62.53;43.88;;;;;;;15.33;100.00;98711.81;2049318;29;20442;-75
2021/09/16 04:34:10;;;;;;;51.92;42.08;;;;;;;15.33;100.00;98715.28;2049773;28;20221;-75
2021/09/16 04:35:12;;;;;;;64.77;45.87;;;;;;;15.32;100.00;98712.94;2049220;29;20202;-75
2021/09/16 04:36:14;;;;;;;57.67;43.53;;;;;;;15.33;100.00;98715.28;2050006;28;20198;-75
2021/09/16 04:37:14;;;;;;;51.00;41.50;;;;;;;15.31;100.00;98719.44;2049693;29;20604;-75
2021/09/16 04:38:16;;;;;;;55.90;45.30;;;;;;;15.33;100.00;98726.03;2049647;29;20448;-75
2021/09/16 04:39:17;;;;;;;55.85;44.25;;;;;;;15.30;100.00;98713.28;2041731;29;20214;-75
2021/09/16 04:40:19;;;;;;;62.87;45.60;;;;;;;15.33;100.00;98719.88;2049807;29;20195;-75